sensor_id;sensor_type;location;lat;lon;timestamp;pressure;altitude;pressure_sealevel;temperature;humidity
77110;BME280;66062;52.464;16.922;2022-12-18T00:01:30;102296.22;;;-4.95;91.55
77110;BME280;66062;52.464;16.922;2022-12-18T00:04:00;102291.88;;;-4.94;91.51
77110;BME280;66062;52.464;16.922;2022-12-18T00:06:26;102291.03;;;-5.14;91.48
77110;BME280;66062;52.464;16.922;2022-12-18T00:08:53;102301.41;;;-5.21;91.76
77110;BME280;66062;52.464;16.922;2022-12-18T00:11:20;102301.44;;;-5.14;92.11
77110;BME280;66062;52.464;16.922;2022-12-18T00:13:47;102301.41;;;-5.18;91.63
77110;BME280;66062;52.464;16.922;2022-12-18T00:16:15;102307.50;;;-5.19;91.96
77110;BME280;66062;52.464;16.922;2022-12-18T00:18:42;102297.97;;;-5.10;91.88
77110;BME280;66062;52.464;16.922;2022-12-18T00:21:09;102292.75;;;-5.10;92.24
77110;BME280;66062;52.464;16.922;2022-12-18T00:23:36;102291.00;;;-5.07;91.80
77110;BME280;66062;52.464;16.922;2022-12-18T00:26:04;102295.34;;;-5.07;92.20
77110;BME280;66062;52.464;16.922;2022-12-18T00:28:30;102300.56;;;-5.01;91.98
77110;BME280;66062;52.464;16.922;2022-12-18T00:31:07;102305.78;;;-5.04;91.64
77110;BME280;66062;52.464;16.922;2022-12-18T00:33:34;102299.72;;;-5.03;91.80
77110;BME280;66062;52.464;16.922;2022-12-18T00:36:04;102298.84;;;-5.08;91.96
77110;BME280;66062;52.464;16.922;2022-12-18T00:38:30;102306.66;;;-4.98;91.47
77110;BME280;66062;52.464;16.922;2022-12-18T00:40:56;102306.63;;;-4.89;91.51
77110;BME280;66062;52.464;16.922;2022-12-18T00:43:22;102306.59;;;-4.77;91.40
77110;BME280;66062;52.464;16.922;2022-12-18T00:45:48;102311.81;;;-4.75;91.27
77110;BME280;66062;52.464;16.922;2022-12-18T00:48:14;102320.50;;;-4.73;89.89
77110;BME280;66062;52.464;16.922;2022-12-18T00:50:39;102326.56;;;-4.82;89.35
77110;BME280;66062;52.464;16.922;2022-12-18T00:53:05;102324.84;;;-4.87;90.09
77110;BME280;66062;52.464;16.922;2022-12-18T00:55:30;102323.13;;;-5.00;90.69
77110;BME280;66062;52.464;16.922;2022-12-18T00:57:56;102326.59;;;-4.88;89.94
77110;BME280;66062;52.464;16.922;2022-12-18T01:00:21;102326.59;;;-4.95;90.82
77110;BME280;66062;52.464;16.922;2022-12-18T01:02:47;102339.63;;;-4.98;90.56
77110;BME280;66062;52.464;16.922;2022-12-18T01:05:13;102346.56;;;-5.03;90.89
77110;BME280;66062;52.464;16.922;2022-12-18T01:07:39;102359.53;;;-5.22;90.67
77110;BME280;66062;52.464;16.922;2022-12-18T01:10:06;102362.16;;;-5.19;91.30
77110;BME280;66062;52.464;16.922;2022-12-18T01:12:32;102366.44;;;-5.33;92.07
77110;BME280;66062;52.464;16.922;2022-12-18T01:14:58;102356.91;;;-5.35;91.25
77110;BME280;66062;52.464;16.922;2022-12-18T01:17:24;102365.63;;;-5.24;91.31
77110;BME280;66062;52.464;16.922;2022-12-18T01:19:49;102360.38;;;-5.35;91.54
77110;BME280;66062;52.464;16.922;2022-12-18T01:22:15;102370.78;;;-5.33;91.68
77110;BME280;66062;52.464;16.922;2022-12-18T01:24:40;102366.44;;;-5.39;91.44
77110;BME280;66062;52.464;16.922;2022-12-18T01:27:06;102370.78;;;-5.35;91.24
77110;BME280;66062;52.464;16.922;2022-12-18T01:29:32;102375.09;;;-5.43;91.33
77110;BME280;66062;52.464;16.922;2022-12-18T01:31:57;102375.13;;;-5.28;91.09
77110;BME280;66062;52.464;16.922;2022-12-18T01:34:24;102372.53;;;-5.29;90.83
77110;BME280;66062;52.464;16.922;2022-12-18T01:36:50;102374.22;;;-5.42;91.06
77110;BME280;66062;52.464;16.922;2022-12-18T01:39:18;102380.31;;;-5.41;91.08
77110;BME280;66062;52.464;16.922;2022-12-18T01:41:44;102379.41;;;-5.46;90.37
77110;BME280;66062;52.464;16.922;2022-12-18T01:45:01;102390.69;;;-5.55;90.66
77110;BME280;66062;52.464;16.922;2022-12-18T01:50:11;102387.19;;;-5.57;90.94
77110;BME280;66062;52.464;16.922;2022-12-18T01:52:41;102387.19;;;-5.57;91.37
77110;BME280;66062;52.464;16.922;2022-12-18T01:55:08;102387.09;;;-5.87;91.83
77110;BME280;66062;52.464;16.922;2022-12-18T01:57:34;102381.91;;;-5.84;92.70
77110;BME280;66062;52.464;16.922;2022-12-18T02:00:05;102378.44;;;-5.89;92.14
77110;BME280;66062;52.464;16.922;2022-12-18T02:02:31;102379.28;;;-5.83;92.66
77110;BME280;66062;52.464;16.922;2022-12-18T02:04:56;102390.56;;;-5.82;92.37
77110;BME280;66062;52.464;16.922;2022-12-18T02:13:12;102384.50;;;-5.84;91.85
77110;BME280;66062;52.464;16.922;2022-12-18T02:16:08;102398.41;;;-5.75;91.43
77110;BME280;66062;52.464;16.922;2022-12-18T02:18:43;102407.91;;;-5.78;91.58
77110;BME280;66062;52.464;16.922;2022-12-18T02:21:44;102414.66;;;-6.20;92.10
77110;BME280;66062;52.464;16.922;2022-12-18T02:26:56;102409.47;;;-6.20;92.94
77110;BME280;66062;52.464;16.922;2022-12-18T02:29:53;102408.38;;;-6.47;93.64
77110;BME280;66062;52.464;16.922;2022-12-18T02:32:25;102417.59;;;-6.84;94.52
77110;BME280;66062;52.464;16.922;2022-12-18T02:34:52;102419.44;;;-6.73;95.01
77110;BME280;66062;52.464;16.922;2022-12-18T02:37:21;102416.16;;;-6.49;94.79
77110;BME280;66062;52.464;16.922;2022-12-18T02:39:49;102421.47;;;-6.37;93.77
77110;BME280;66062;52.464;16.922;2022-12-18T02:42:16;102418.00;;;-6.33;93.13
77110;BME280;66062;52.464;16.922;2022-12-18T02:44:50;102423.75;;;-6.73;94.37
77110;BME280;66062;52.464;16.922;2022-12-18T02:47:18;102418.41;;;-6.90;94.56
77110;BME280;66062;52.464;16.922;2022-12-18T03:00:10;102416.97;;;-6.58;93.24
77110;BME280;66062;52.464;16.922;2022-12-18T03:02:59;102423.06;;;-6.53;92.32
77110;BME280;66062;52.464;16.922;2022-12-18T03:05:36;102421.28;;;-6.61;92.07
77110;BME280;66062;52.464;16.922;2022-12-18T03:08:14;102425.59;;;-6.60;92.18
77110;BME280;66062;52.464;16.922;2022-12-18T03:10:45;102417.78;;;-6.63;92.25
77110;BME280;66062;52.464;16.922;2022-12-18T03:13:27;102430.78;;;-6.62;92.62
77110;BME280;66062;52.464;16.922;2022-12-18T03:15:55;102429.06;;;-6.60;92.28
77110;BME280;66062;52.464;16.922;2022-12-18T03:18:26;102435.13;;;-6.59;92.33
77110;BME280;66062;52.464;16.922;2022-12-18T03:20:58;102439.44;;;-6.61;92.14
77110;BME280;66062;52.464;16.922;2022-12-18T03:23:28;102447.94;;;-6.79;92.40
77110;BME280;66062;52.464;16.922;2022-12-18T03:25:57;102445.06;;;-7.08;93.72
77110;BME280;66062;52.464;16.922;2022-12-18T03:28:24;102450.38;;;-6.94;93.21
77110;BME280;66062;52.464;16.922;2022-12-18T03:30:57;102443.53;;;-6.87;92.70
77110;BME280;66062;52.464;16.922;2022-12-18T03:33:38;102449.50;;;-6.95;92.28
77110;BME280;66062;52.464;16.922;2022-12-18T03:36:06;102452.94;;;-6.99;92.26
77110;BME280;66062;52.464;16.922;2022-12-18T03:38:31;102457.22;;;-7.02;92.32
77110;BME280;66062;52.464;16.922;2022-12-18T03:41:11;102453.63;;;-7.15;92.61
77110;BME280;66062;52.464;16.922;2022-12-18T03:47:15;102466.69;;;-7.04;92.48
77110;BME280;66062;52.464;16.922;2022-12-18T03:52:36;102479.66;;;-7.06;91.98
77110;BME280;66062;52.464;16.922;2022-12-18T03:55:05;102461.72;;;-6.86;92.46
77110;BME280;66062;52.464;16.922;2022-12-18T03:57:32;102460.72;;;-6.97;92.27
77110;BME280;66062;52.464;16.922;2022-12-18T04:00:03;102469.00;;;-7.30;92.78
77110;BME280;66062;52.464;16.922;2022-12-18T04:02:30;102464.56;;;-7.40;93.50
77110;BME280;66062;52.464;16.922;2022-12-18T04:04:58;102457.44;;;-7.56;94.61
77110;BME280;66062;52.464;16.922;2022-12-18T04:07:26;102467.38;;;-7.23;94.88
77110;BME280;66062;52.464;16.922;2022-12-18T04:09:55;102470.13;;;-7.08;94.38
77110;BME280;66062;52.464;16.922;2022-12-18T04:12:24;102463.16;;;-7.12;93.94
77110;BME280;66062;52.464;16.922;2022-12-18T04:14:50;102465.91;;;-6.96;93.27
77110;BME280;66062;52.464;16.922;2022-12-18T04:17:16;102469.44;;;-6.92;92.96
77110;BME280;66062;52.464;16.922;2022-12-18T04:19:41;102480.66;;;-6.96;93.34
77110;BME280;66062;52.464;16.922;2022-12-18T04:22:09;102484.63;;;-7.27;93.66
77110;BME280;66062;52.464;16.922;2022-12-18T04:24:35;102485.72;;;-7.07;93.63
77110;BME280;66062;52.464;16.922;2022-12-18T04:27:00;102484.91;;;-7.00;93.86
77110;BME280;66062;52.464;16.922;2022-12-18T04:29:25;102488.22;;;-7.14;93.02
77110;BME280;66062;52.464;16.922;2022-12-18T04:31:51;102482.38;;;-6.97;93.06
77110;BME280;66062;52.464;16.922;2022-12-18T04:34:16;102488.34;;;-7.01;93.66
77110;BME280;66062;52.464;16.922;2022-12-18T04:36:42;102495.25;;;-7.04;93.91
77110;BME280;66062;52.464;16.922;2022-12-18T04:39:07;102497.88;;;-7.00;93.42
77110;BME280;66062;52.464;16.922;2022-12-18T04:41:32;102501.47;;;-6.88;93.09
77110;BME280;66062;52.464;16.922;2022-12-18T04:43:58;102502.31;;;-6.89;92.46
77110;BME280;66062;52.464;16.922;2022-12-18T04:46:23;102503.13;;;-6.97;92.83
77110;BME280;66062;52.464;16.922;2022-12-18T04:48:48;102502.19;;;-7.02;92.24
77110;BME280;66062;52.464;16.922;2022-12-18T04:51:14;102511.66;;;-7.07;92.69
77110;BME280;66062;52.464;16.922;2022-12-18T04:53:39;102520.72;;;-7.42;93.59
77110;BME280;66062;52.464;16.922;2022-12-18T04:56:10;102517.13;;;-7.53;94.68
77110;BME280;66062;52.464;16.922;2022-12-18T04:58:38;102515.53;;;-7.41;95.28
77110;BME280;66062;52.464;16.922;2022-12-18T05:01:04;102515.56;;;-7.39;94.63
77110;BME280;66062;52.464;16.922;2022-12-18T05:03:30;102516.53;;;-7.31;94.87
77110;BME280;66062;52.464;16.922;2022-12-18T05:05:55;102516.38;;;-7.43;93.93
77110;BME280;66062;52.464;16.922;2022-12-18T05:08:21;102523.75;;;-7.73;94.59
77110;BME280;66062;52.464;16.922;2022-12-18T05:10:47;102525.75;;;-7.54;95.10
77110;BME280;66062;52.464;16.922;2022-12-18T05:13:12;102527.53;;;-7.52;95.95
77110;BME280;66062;52.464;16.922;2022-12-18T05:15:37;102533.63;;;-7.45;95.24
77110;BME280;66062;52.464;16.922;2022-12-18T05:18:03;102536.53;;;-7.22;94.98
77110;BME280;66062;52.464;16.922;2022-12-18T05:20:29;102539.06;;;-7.25;95.41
77110;BME280;66062;52.464;16.922;2022-12-18T05:22:55;102540.06;;;-7.16;94.82
77110;BME280;66062;52.464;16.922;2022-12-18T05:25:21;102535.88;;;-7.05;94.55
77110;BME280;66062;52.464;16.922;2022-12-18T05:27:47;102541.84;;;-7.12;94.50
77110;BME280;66062;52.464;16.922;2022-12-18T05:30:13;102544.84;;;-7.46;94.54
77110;BME280;66062;52.464;16.922;2022-12-18T05:32:39;102547.44;;;-7.46;95.07
77110;BME280;66062;52.464;16.922;2022-12-18T05:35:06;102563.66;;;-7.62;96.38
77110;BME280;66062;52.464;16.922;2022-12-18T05:37:32;102562.22;;;-7.42;95.88
77110;BME280;66062;52.464;16.922;2022-12-18T05:39:58;102557.19;;;-7.31;96.00
77110;BME280;66062;52.464;16.922;2022-12-18T05:42:25;102560.75;;;-7.22;95.85
77110;BME280;66062;52.464;16.922;2022-12-18T05:44:52;102566.41;;;-7.52;95.87
77110;BME280;66062;52.464;16.922;2022-12-18T05:47:17;102563.31;;;-7.23;95.72
77110;BME280;66062;52.464;16.922;2022-12-18T05:49:43;102562.56;;;-7.15;95.45
77110;BME280;66062;52.464;16.922;2022-12-18T05:52:08;102571.31;;;-7.07;95.52
77110;BME280;66062;52.464;16.922;2022-12-18T05:54:34;102562.63;;;-7.09;95.31
77110;BME280;66062;52.464;16.922;2022-12-18T05:57:00;102577.44;;;-7.00;94.97
77110;BME280;66062;52.464;16.922;2022-12-18T05:59:25;102581.72;;;-7.04;94.55
77110;BME280;66062;52.464;16.922;2022-12-18T06:01:50;102584.44;;;-6.96;94.29
77110;BME280;66062;52.464;16.922;2022-12-18T06:04:17;102592.28;;;-6.92;93.82
77110;BME280;66062;52.464;16.922;2022-12-18T06:06:43;102590.59;;;-6.86;94.10
77110;BME280;66062;52.464;16.922;2022-12-18T06:09:09;102591.50;;;-6.83;94.19
77110;BME280;66062;52.464;16.922;2022-12-18T06:11:36;102592.59;;;-7.30;94.52
77110;BME280;66062;52.464;16.922;2022-12-18T06:14:04;102607.13;;;-7.43;96.04
77110;BME280;66062;52.464;16.922;2022-12-18T06:16:30;102611.47;;;-7.42;96.02
77110;BME280;66062;52.464;16.922;2022-12-18T06:18:59;102621.78;;;-7.47;95.67
77110;BME280;66062;52.464;16.922;2022-12-18T06:21:26;102618.22;;;-7.53;96.89
77110;BME280;66062;52.464;16.922;2022-12-18T06:23:51;102622.00;;;-7.31;97.32
77110;BME280;66062;52.464;16.922;2022-12-18T06:26:17;102623.06;;;-7.16;96.87
77110;BME280;66062;52.464;16.922;2022-12-18T06:28:42;102624.81;;;-7.15;96.10
77110;BME280;66062;52.464;16.922;2022-12-18T06:31:08;102618.88;;;-7.08;96.13
77110;BME280;66062;52.464;16.922;2022-12-18T06:33:34;102627.94;;;-7.39;95.87
77110;BME280;66062;52.464;16.922;2022-12-18T06:36:04;102633.53;;;-7.10;96.28
77110;BME280;66062;52.464;16.922;2022-12-18T06:38:32;102625.56;;;-7.23;95.79
77110;BME280;66062;52.464;16.922;2022-12-18T06:40:57;102617.16;;;-7.07;95.80
77110;BME280;66062;52.464;16.922;2022-12-18T06:43:23;102622.84;;;-7.31;95.78
77110;BME280;66062;52.464;16.922;2022-12-18T06:45:48;102616.31;;;-7.03;96.65
77110;BME280;66062;52.464;16.922;2022-12-18T06:48:18;102615.66;;;-6.88;96.28
77110;BME280;66062;52.464;16.922;2022-12-18T06:50:44;102620.19;;;-6.72;95.29
77110;BME280;66062;52.464;16.922;2022-12-18T06:53:10;102629.66;;;-6.76;94.81
77110;BME280;66062;52.464;16.922;2022-12-18T06:55:35;102623.22;;;-7.04;94.40
77110;BME280;66062;52.464;16.922;2022-12-18T06:58:01;102633.91;;;-6.79;94.21
77110;BME280;66062;52.464;16.922;2022-12-18T07:00:26;102637.44;;;-6.74;94.07
77110;BME280;66062;52.464;16.922;2022-12-18T07:02:51;102642.56;;;-6.82;94.40
77110;BME280;66062;52.464;16.922;2022-12-18T07:05:17;102648.69;;;-6.74;94.50
77110;BME280;66062;52.464;16.922;2022-12-18T07:07:42;102652.19;;;-6.70;94.62
77110;BME280;66062;52.464;16.922;2022-12-18T07:10:08;102658.13;;;-6.80;94.30
77110;BME280;66062;52.464;16.922;2022-12-18T07:12:34;102661.19;;;-7.10;94.69
77110;BME280;66062;52.464;16.922;2022-12-18T07:14:59;102663.75;;;-7.13;94.81
77110;BME280;66062;52.464;16.922;2022-12-18T07:17:24;102666.97;;;-7.29;95.13
77110;BME280;66062;52.464;16.922;2022-12-18T07:19:50;102667.81;;;-7.30;94.99
77110;BME280;66062;52.464;16.922;2022-12-18T07:22:15;102655.06;;;-7.15;94.92
77110;BME280;66062;52.464;16.922;2022-12-18T07:24:41;102669.81;;;-7.13;95.04
77110;BME280;66062;52.464;16.922;2022-12-18T07:27:06;102681.75;;;-7.24;94.39
77110;BME280;66062;52.464;16.922;2022-12-18T07:29:32;102677.28;;;-7.34;94.92
77110;BME280;66062;52.464;16.922;2022-12-18T07:31:57;102679.84;;;-7.37;95.22
77110;BME280;66062;52.464;16.922;2022-12-18T07:34:23;102677.34;;;-7.29;95.13
77110;BME280;66062;52.464;16.922;2022-12-18T07:36:48;102684.50;;;-7.13;94.90
77110;BME280;66062;52.464;16.922;2022-12-18T07:39:13;102692.47;;;-7.00;94.72
77110;BME280;66062;52.464;16.922;2022-12-18T07:41:39;102702.69;;;-7.10;94.54
77110;BME280;66062;52.464;16.922;2022-12-18T07:44:11;102711.16;;;-7.23;95.50
77110;BME280;66062;52.464;16.922;2022-12-18T07:46:37;102715.78;;;-7.03;95.22
77110;BME280;66062;52.464;16.922;2022-12-18T07:49:02;102712.28;;;-7.06;95.42
77110;BME280;66062;52.464;16.922;2022-12-18T07:51:27;102721.03;;;-6.98;95.31
77110;BME280;66062;52.464;16.922;2022-12-18T07:53:53;102717.75;;;-6.86;95.31
77110;BME280;66062;52.464;16.922;2022-12-18T07:56:18;102720.56;;;-6.70;93.66
77110;BME280;66062;52.464;16.922;2022-12-18T07:58:44;102724.00;;;-6.72;93.19
77110;BME280;66062;52.464;16.922;2022-12-18T08:01:11;102728.97;;;-6.87;93.01
77110;BME280;66062;52.464;16.922;2022-12-18T08:03:38;102730.69;;;-6.89;93.53
77110;BME280;66062;52.464;16.922;2022-12-18T08:06:06;102731.16;;;-6.56;93.55
77110;BME280;66062;52.464;16.922;2022-12-18T08:08:33;102739.13;;;-6.41;92.19
77110;BME280;66062;52.464;16.922;2022-12-18T08:10:59;102738.22;;;-6.46;92.48
77110;BME280;66062;52.464;16.922;2022-12-18T08:13:25;102748.03;;;-6.85;93.47
77110;BME280;66062;52.464;16.922;2022-12-18T08:16:07;102748.00;;;-6.88;94.28
77110;BME280;66062;52.464;16.922;2022-12-18T08:18:34;102759.97;;;-6.98;94.02
77110;BME280;66062;52.464;16.922;2022-12-18T08:23:38;102758.78;;;-6.61;94.29
77110;BME280;66062;52.464;16.922;2022-12-18T08:26:04;102743.03;;;-6.73;94.37
77110;BME280;66062;52.464;16.922;2022-12-18T08:28:30;102733.84;;;-6.47;94.18
77110;BME280;66062;52.464;16.922;2022-12-18T08:30:55;102748.41;;;-6.58;94.12
77110;BME280;66062;52.464;16.922;2022-12-18T08:33:21;102746.75;;;-6.53;93.66
77110;BME280;66062;52.464;16.922;2022-12-18T08:35:46;102740.44;;;-6.73;93.26
77110;BME280;66062;52.464;16.922;2022-12-18T08:38:12;102744.66;;;-6.81;93.89
77110;BME280;66062;52.464;16.922;2022-12-18T08:40:37;102732.28;;;-6.36;93.29
77110;BME280;66062;52.464;16.922;2022-12-18T08:43:02;102729.97;;;-6.09;92.55
77110;BME280;66062;52.464;16.922;2022-12-18T08:45:47;102733.69;;;-5.85;91.01
77110;BME280;66062;52.464;16.922;2022-12-18T08:48:12;102730.75;;;-6.17;90.91
77110;BME280;66062;52.464;16.922;2022-12-18T08:50:37;102733.59;;;-6.67;92.11
77110;BME280;66062;52.464;16.922;2022-12-18T08:53:03;102714.03;;;-6.39;92.56
77110;BME280;66062;52.464;16.922;2022-12-18T08:55:29;102716.81;;;-6.25;92.63
77110;BME280;66062;52.464;16.922;2022-12-18T08:57:54;102713.50;;;-6.09;92.25
77110;BME280;66062;52.464;16.922;2022-12-18T09:00:20;102710.84;;;-6.17;91.76
77110;BME280;66062;52.464;16.922;2022-12-18T09:02:45;102707.84;;;-6.52;91.63
77110;BME280;66062;52.464;16.922;2022-12-18T09:05:11;102693.16;;;-6.48;92.73
77110;BME280;66062;52.464;16.922;2022-12-18T09:07:36;102699.31;;;-6.38;92.81
77110;BME280;66062;52.464;16.922;2022-12-18T09:10:02;102690.13;;;-6.11;93.15
77110;BME280;66062;52.464;16.922;2022-12-18T09:12:27;102703.25;;;-5.97;92.23
77110;BME280;66062;52.464;16.922;2022-12-18T09:14:53;102699.69;;;-6.10;91.89
77110;BME280;66062;52.464;16.922;2022-12-18T09:17:21;102705.06;;;-5.84;91.75
77110;BME280;66062;52.464;16.922;2022-12-18T09:19:47;102719.72;;;-5.99;90.48
77110;BME280;66062;52.464;16.922;2022-12-18T09:22:12;102714.75;;;-6.52;92.13
77110;BME280;66062;52.464;16.922;2022-12-18T09:24:38;102717.47;;;-6.43;93.38
77110;BME280;66062;52.464;16.922;2022-12-18T09:27:03;102718.34;;;-6.42;93.38
77110;BME280;66062;52.464;16.922;2022-12-18T09:29:28;102723.03;;;-6.11;93.11
77110;BME280;66062;52.464;16.922;2022-12-18T09:31:54;102732.53;;;-6.13;92.38
77110;BME280;66062;52.464;16.922;2022-12-18T09:34:20;102734.38;;;-6.03;92.35
77110;BME280;66062;52.464;16.922;2022-12-18T09:36:47;102735.41;;;-5.87;91.36
77110;BME280;66062;52.464;16.922;2022-12-18T09:39:13;102733.75;;;-5.79;91.37
77110;BME280;66062;52.464;16.922;2022-12-18T09:41:55;102731.81;;;-6.00;91.64
77110;BME280;66062;52.464;16.922;2022-12-18T09:44:32;102723.81;;;-6.20;92.39
77110;BME280;66062;52.464;16.922;2022-12-18T09:47:25;102714.66;;;-5.78;92.77
77110;BME280;66062;52.464;16.922;2022-12-18T09:49:56;102722.66;;;-5.60;92.13
77110;BME280;66062;52.464;16.922;2022-12-18T09:52:29;102720.19;;;-5.42;91.85
77110;BME280;66062;52.464;16.922;2022-12-18T09:55:25;102718.50;;;-5.40;90.37
77110;BME280;66062;52.464;16.922;2022-12-18T09:57:55;102715.81;;;-5.50;90.23
77110;BME280;66062;52.464;16.922;2022-12-18T10:00:23;102725.19;;;-5.69;90.92
77110;BME280;66062;52.464;16.922;2022-12-18T10:02:53;102726.13;;;-5.58;91.31
77110;BME280;66062;52.464;16.922;2022-12-18T10:05:44;102713.22;;;-5.49;91.45
77110;BME280;66062;52.464;16.922;2022-12-18T10:11:24;102716.88;;;-5.23;90.12
77110;BME280;66062;52.464;16.922;2022-12-18T10:13:57;102697.84;;;-5.19;90.40
77110;BME280;66062;52.464;16.922;2022-12-18T10:16:30;102706.34;;;-5.39;90.95
77110;BME280;66062;52.464;16.922;2022-12-18T10:25:24;102725.09;;;-4.63;89.23
77110;BME280;66062;52.464;16.922;2022-12-18T10:27:54;102724.16;;;-4.67;89.10
77110;BME280;66062;52.464;16.922;2022-12-18T10:30:22;102728.47;;;-4.77;88.81
77110;BME280;66062;52.464;16.922;2022-12-18T10:32:48;102716.28;;;-4.85;88.98
77110;BME280;66062;52.464;16.922;2022-12-18T10:35:24;102717.22;;;-4.74;88.62
77110;BME280;66062;52.464;16.922;2022-12-18T10:40:31;102726.94;;;-4.38;88.89
77110;BME280;66062;52.464;16.922;2022-12-18T10:43:05;102720.88;;;-4.33;89.17
77110;BME280;66062;52.464;16.922;2022-12-18T10:45:35;102727.88;;;-4.22;87.74
77110;BME280;66062;52.464;16.922;2022-12-18T10:48:01;102726.06;;;-4.36;88.56
77110;BME280;66062;52.464;16.922;2022-12-18T10:52:59;102719.00;;;-4.62;89.97
77110;BME280;66062;52.464;16.922;2022-12-18T10:55:33;102723.44;;;-4.43;89.21
77110;BME280;66062;52.464;16.922;2022-12-18T10:58:23;102722.63;;;-4.28;89.21
77110;BME280;66062;52.464;16.922;2022-12-18T11:03:32;102728.69;;;-4.33;88.47
77110;BME280;66062;52.464;16.922;2022-12-18T11:08:29;102712.16;;;-4.32;88.81
77110;BME280;66062;52.464;16.922;2022-12-18T11:10:54;102700.84;;;-4.41;88.91
77110;BME280;66062;52.464;16.922;2022-12-18T11:13:23;102712.06;;;-4.59;90.02
77110;BME280;66062;52.464;16.922;2022-12-18T11:15:49;102701.75;;;-4.32;89.75
77110;BME280;66062;52.464;16.922;2022-12-18T11:18:33;102706.09;;;-4.35;89.11
77110;BME280;66062;52.464;16.922;2022-12-18T11:21:05;102706.13;;;-4.24;88.76
77110;BME280;66062;52.464;16.922;2022-12-18T11:23:33;102709.50;;;-4.54;89.77
77110;BME280;66062;52.464;16.922;2022-12-18T11:26:01;102705.25;;;-4.20;89.00
77110;BME280;66062;52.464;16.922;2022-12-18T11:28:42;102703.56;;;-4.08;88.70
77110;BME280;66062;52.464;16.922;2022-12-18T11:33:42;102696.63;;;-4.13;87.92
77110;BME280;66062;52.464;16.922;2022-12-18T11:36:12;102693.97;;;-4.16;87.43
77110;BME280;66062;52.464;16.922;2022-12-18T11:38:44;102701.81;;;-4.06;87.23
77110;BME280;66062;52.464;16.922;2022-12-18T11:41:29;102702.66;;;-4.20;87.78
77110;BME280;66062;52.464;16.922;2022-12-18T11:44:25;102702.69;;;-4.10;87.62
77110;BME280;66062;52.464;16.922;2022-12-18T11:46:56;102701.84;;;-4.03;86.99
77110;BME280;66062;52.464;16.922;2022-12-18T11:49:32;102705.28;;;-4.23;86.93
77110;BME280;66062;52.464;16.922;2022-12-18T11:52:08;102713.09;;;-4.14;87.22
77110;BME280;66062;52.464;16.922;2022-12-18T11:54:35;102706.97;;;-4.32;88.44
77110;BME280;66062;52.464;16.922;2022-12-18T12:05:03;102722.56;;;-4.41;88.41
77110;BME280;66062;52.464;16.922;2022-12-18T12:07:41;102725.22;;;-4.28;88.11
77110;BME280;66062;52.464;16.922;2022-12-18T12:10:53;102724.34;;;-4.31;87.15
77110;BME280;66062;52.464;16.922;2022-12-18T12:16:06;102726.13;;;-4.16;87.80
77110;BME280;66062;52.464;16.922;2022-12-18T12:18:44;102729.66;;;-4.05;87.83
77110;BME280;66062;52.464;16.922;2022-12-18T12:23:59;102731.41;;;-3.96;86.16
77110;BME280;66062;52.464;16.922;2022-12-18T12:26:47;102743.59;;;-3.98;87.10
77110;BME280;66062;52.464;16.922;2022-12-18T12:30:48;102739.25;;;-3.89;86.94
77110;BME280;66062;52.464;16.922;2022-12-18T12:33:43;102739.28;;;-3.78;86.08
77110;BME280;66062;52.464;16.922;2022-12-18T12:38:54;102724.47;;;-3.85;85.76
77110;BME280;66062;52.464;16.922;2022-12-18T12:41:25;102727.09;;;-3.88;86.56
77110;BME280;66062;52.464;16.922;2022-12-18T12:44:15;102728.81;;;-3.85;87.27
77110;BME280;66062;52.464;16.922;2022-12-18T12:46:43;102723.63;;;-3.92;86.71
77110;BME280;66062;52.464;16.922;2022-12-18T12:49:15;102726.19;;;-3.96;87.13
77110;BME280;66062;52.464;16.922;2022-12-18T12:51:43;102737.50;;;-3.90;86.49
77110;BME280;66062;52.464;16.922;2022-12-18T12:54:22;102731.44;;;-3.92;86.58
77110;BME280;66062;52.464;16.922;2022-12-18T12:59:46;102727.94;;;-3.91;86.28
77110;BME280;66062;52.464;16.922;2022-12-18T13:02:37;102721.84;;;-3.90;86.34
77110;BME280;66062;52.464;16.922;2022-12-18T13:13:11;102714.84;;;-4.15;86.98
77110;BME280;66062;52.464;16.922;2022-12-18T13:20:39;102720.91;;;-4.23;88.28
77110;BME280;66062;52.464;16.922;2022-12-18T13:25:56;102715.75;;;-4.05;87.95
77110;BME280;66062;52.464;16.922;2022-12-18T13:31:10;102709.59;;;-4.24;88.01
77110;BME280;66062;52.464;16.922;2022-12-18T13:33:37;102706.13;;;-4.23;87.68
77110;BME280;66062;52.464;16.922;2022-12-18T13:36:14;102713.94;;;-4.21;88.15
77110;BME280;66062;52.464;16.922;2022-12-18T13:38:42;102729.59;;;-4.24;87.42
77110;BME280;66062;52.464;16.922;2022-12-18T13:41:26;102723.47;;;-4.31;88.11
77110;BME280;66062;52.464;16.922;2022-12-18T13:43:57;102719.13;;;-4.38;88.02
77110;BME280;66062;52.464;16.922;2022-12-18T13:46:48;102720.81;;;-4.45;88.80
77110;BME280;66062;52.464;16.922;2022-12-18T13:49:22;102733.00;;;-4.44;88.81
77110;BME280;66062;52.464;16.922;2022-12-18T13:51:51;102736.53;;;-4.28;88.61
77110;BME280;66062;52.464;16.922;2022-12-18T13:54:32;102737.31;;;-4.44;88.11
77110;BME280;66062;52.464;16.922;2022-12-18T13:56:58;102738.19;;;-4.44;87.55
77110;BME280;66062;52.464;16.922;2022-12-18T13:59:26;102725.88;;;-4.75;88.83
77110;BME280;66062;52.464;16.922;2022-12-18T14:01:56;102726.88;;;-4.50;88.94
77110;BME280;66062;52.464;16.922;2022-12-18T14:04:28;102731.25;;;-4.42;88.50
77110;BME280;66062;52.464;16.922;2022-12-18T14:07:05;102736.47;;;-4.36;88.38
77110;BME280;66062;52.464;16.922;2022-12-18T14:09:37;102728.69;;;-4.34;88.06
77110;BME280;66062;52.464;16.922;2022-12-18T14:12:05;102731.28;;;-4.36;88.58
77110;BME280;66062;52.464;16.922;2022-12-18T14:14:51;102745.16;;;-4.40;87.54
77110;BME280;66062;52.464;16.922;2022-12-18T14:17:17;102744.22;;;-4.51;87.71
77110;BME280;66062;52.464;16.922;2022-12-18T14:19:48;102740.75;;;-4.57;88.11
77110;BME280;66062;52.464;16.922;2022-12-18T14:22:16;102752.88;;;-4.61;88.59
77110;BME280;66062;52.464;16.922;2022-12-18T14:24:44;102752.00;;;-4.57;88.38